sensor_id;sensor_type;location;lat;lon;timestamp;P1;durP1;ratioP1;P2;durP2;ratioP2
14754;SDS011;7469;50.906;6.952;2023-08-07T00:00:04;8.07;;;2.50;;
14754;SDS011;7469;50.906;6.952;2023-08-07T00:02:35;10.73;;;2.40;;
14754;SDS011;7469;50.906;6.952;2023-08-07T00:05:03;12.80;;;3.00;;
14754;SDS011;7469;50.906;6.952;2023-08-07T00:07:32;14.57;;;3.10;;
14754;SDS011;7469;50.906;6.952;2023-08-07T00:10:00;10.17;;;2.93;;
14754;SDS011;7469;50.906;6.952;2023-08-07T00:12:30;7.87;;;2.60;;
14754;SDS011;7469;50.906;6.952;2023-08-07T00:14:58;10.30;;;3.03;;
14754;SDS011;7469;50.906;6.952;2023-08-07T00:17:27;8.73;;;3.07;;
14754;SDS011;7469;50.906;6.952;2023-08-07T00:19:55;13.43;;;3.27;;
14754;SDS011;7469;50.906;6.952;2023-08-07T00:22:23;10.93;;;3.27;;
14754;SDS011;7469;50.906;6.952;2023-08-07T00:24:52;11.07;;;3.30;;
14754;SDS011;7469;50.906;6.952;2023-08-07T00:27:20;13.97;;;2.70;;
14754;SDS011;7469;50.906;6.952;2023-08-07T00:29:49;14.03;;;2.90;;
14754;SDS011;7469;50.906;6.952;2023-08-07T00:32:17;6.90;;;2.87;;
14754;SDS011;7469;50.906;6.952;2023-08-07T00:34:45;10.70;;;2.77;;
14754;SDS011;7469;50.906;6.952;2023-08-07T00:37:13;13.60;;;2.93;;
14754;SDS011;7469;50.906;6.952;2023-08-07T00:39:41;9.60;;;3.10;;
14754;SDS011;7469;50.906;6.952;2023-08-07T00:42:09;8.67;;;2.77;;
14754;SDS011;7469;50.906;6.952;2023-08-07T00:44:37;12.27;;;2.97;;
14754;SDS011;7469;50.906;6.952;2023-08-07T00:47:07;10.37;;;2.67;;
14754;SDS011;7469;50.906;6.952;2023-08-07T00:49:35;11.97;;;3.10;;
14754;SDS011;7469;50.906;6.952;2023-08-07T00:52:04;11.37;;;3.00;;
14754;SDS011;7469;50.906;6.952;2023-08-07T00:54:32;10.83;;;2.80;;
14754;SDS011;7469;50.906;6.952;2023-08-07T00:57:02;10.27;;;2.90;;
14754;SDS011;7469;50.906;6.952;2023-08-07T00:59:38;9.57;;;2.60;;
14754;SDS011;7469;50.906;6.952;2023-08-07T01:02:08;10.70;;;3.30;;
14754;SDS011;7469;50.906;6.952;2023-08-07T01:04:39;10.50;;;2.80;;
14754;SDS011;7469;50.906;6.952;2023-08-07T01:07:07;10.07;;;2.97;;
14754;SDS011;7469;50.906;6.952;2023-08-07T01:09:36;7.17;;;2.67;;
14754;SDS011;7469;50.906;6.952;2023-08-07T01:12:08;10.37;;;3.27;;
14754;SDS011;7469;50.906;6.952;2023-08-07T01:14:44;10.10;;;2.93;;
14754;SDS011;7469;50.906;6.952;2023-08-07T01:17:19;11.47;;;3.00;;
14754;SDS011;7469;50.906;6.952;2023-08-07T01:19:49;11.57;;;2.73;;
14754;SDS011;7469;50.906;6.952;2023-08-07T01:22:20;7.83;;;3.00;;
14754;SDS011;7469;50.906;6.952;2023-08-07T01:24:49;6.70;;;3.00;;
14754;SDS011;7469;50.906;6.952;2023-08-07T01:27:24;10.80;;;2.67;;
14754;SDS011;7469;50.906;6.952;2023-08-07T01:29:59;9.50;;;3.00;;
14754;SDS011;7469;50.906;6.952;2023-08-07T01:32:33;9.07;;;2.70;;
14754;SDS011;7469;50.906;6.952;2023-08-07T01:35:06;13.93;;;3.40;;
14754;SDS011;7469;50.906;6.952;2023-08-07T01:37:39;11.00;;;2.80;;
14754;SDS011;7469;50.906;6.952;2023-08-07T01:40:09;8.67;;;3.13;;
14754;SDS011;7469;50.906;6.952;2023-08-07T01:42:39;12.93;;;3.20;;
14754;SDS011;7469;50.906;6.952;2023-08-07T01:45:07;12.47;;;3.27;;
14754;SDS011;7469;50.906;6.952;2023-08-07T01:47:35;7.10;;;2.57;;
14754;SDS011;7469;50.906;6.952;2023-08-07T01:50:03;12.87;;;2.87;;
14754;SDS011;7469;50.906;6.952;2023-08-07T01:52:32;11.60;;;2.60;;
14754;SDS011;7469;50.906;6.952;2023-08-07T01:55:01;12.57;;;3.47;;
14754;SDS011;7469;50.906;6.952;2023-08-07T01:57:29;8.93;;;2.80;;
14754;SDS011;7469;50.906;6.952;2023-08-07T01:59:58;11.60;;;3.63;;
14754;SDS011;7469;50.906;6.952;2023-08-07T02:02:26;10.00;;;3.20;;
14754;SDS011;7469;50.906;6.952;2023-08-07T02:04:54;11.40;;;2.90;;
14754;SDS011;7469;50.906;6.952;2023-08-07T02:07:21;13.20;;;3.17;;
14754;SDS011;7469;50.906;6.952;2023-08-07T02:09:49;9.00;;;2.97;;
14754;SDS011;7469;50.906;6.952;2023-08-07T02:12:19;8.63;;;2.93;;
14754;SDS011;7469;50.906;6.952;2023-08-07T02:14:47;10.93;;;3.23;;
14754;SDS011;7469;50.906;6.952;2023-08-07T02:17:15;10.43;;;3.10;;
14754;SDS011;7469;50.906;6.952;2023-08-07T02:19:43;9.77;;;3.00;;
14754;SDS011;7469;50.906;6.952;2023-08-07T02:22:10;10.40;;;3.13;;
14754;SDS011;7469;50.906;6.952;2023-08-07T02:24:38;13.03;;;3.53;;
14754;SDS011;7469;50.906;6.952;2023-08-07T02:27:06;8.90;;;2.97;;
14754;SDS011;7469;50.906;6.952;2023-08-07T02:29:36;12.33;;;3.13;;
14754;SDS011;7469;50.906;6.952;2023-08-07T02:32:04;11.47;;;2.90;;
14754;SDS011;7469;50.906;6.952;2023-08-07T02:34:32;6.40;;;2.80;;
14754;SDS011;7469;50.906;6.952;2023-08-07T02:37:00;7.73;;;3.03;;
14754;SDS011;7469;50.906;6.952;2023-08-07T02:39:28;12.00;;;2.83;;
14754;SDS011;7469;50.906;6.952;2023-08-07T02:41:56;15.40;;;3.53;;
14754;SDS011;7469;50.906;6.952;2023-08-07T02:44:24;9.63;;;3.30;;
14754;SDS011;7469;50.906;6.952;2023-08-07T02:46:53;10.97;;;3.40;;
14754;SDS011;7469;50.906;6.952;2023-08-07T02:49:21;10.87;;;3.00;;
14754;SDS011;7469;50.906;6.952;2023-08-07T02:51:49;11.97;;;3.13;;
14754;SDS011;7469;50.906;6.952;2023-08-07T02:54:17;10.83;;;3.33;;
14754;SDS011;7469;50.906;6.952;2023-08-07T02:56:45;16.00;;;3.50;;
14754;SDS011;7469;50.906;6.952;2023-08-07T02:59:15;9.60;;;3.40;;
14754;SDS011;7469;50.906;6.952;2023-08-07T03:01:43;7.73;;;3.10;;
14754;SDS011;7469;50.906;6.952;2023-08-07T03:04:13;6.17;;;2.93;;
14754;SDS011;7469;50.906;6.952;2023-08-07T03:06:40;12.73;;;2.93;;
14754;SDS011;7469;50.906;6.952;2023-08-07T03:09:08;13.80;;;3.37;;
14754;SDS011;7469;50.906;6.952;2023-08-07T03:11:36;11.03;;;3.33;;
14754;SDS011;7469;50.906;6.952;2023-08-07T03:14:04;6.97;;;2.90;;
14754;SDS011;7469;50.906;6.952;2023-08-07T03:16:32;11.50;;;3.03;;
14754;SDS011;7469;50.906;6.952;2023-08-07T03:19:00;8.63;;;3.17;;
14754;SDS011;7469;50.906;6.952;2023-08-07T03:21:29;6.83;;;3.13;;
14754;SDS011;7469;50.906;6.952;2023-08-07T03:23:58;12.20;;;3.50;;
14754;SDS011;7469;50.906;6.952;2023-08-07T03:26:26;8.93;;;3.20;;
14754;SDS011;7469;50.906;6.952;2023-08-07T03:28:54;9.80;;;2.97;;
14754;SDS011;7469;50.906;6.952;2023-08-07T03:31:21;11.47;;;3.00;;
14754;SDS011;7469;50.906;6.952;2023-08-07T03:33:49;9.47;;;3.37;;
14754;SDS011;7469;50.906;6.952;2023-08-07T03:36:17;8.37;;;3.30;;
14754;SDS011;7469;50.906;6.952;2023-08-07T03:38:47;12.53;;;3.20;;
14754;SDS011;7469;50.906;6.952;2023-08-07T03:41:15;9.13;;;3.00;;
14754;SDS011;7469;50.906;6.952;2023-08-07T03:43:43;14.07;;;3.50;;
14754;SDS011;7469;50.906;6.952;2023-08-07T03:46:10;15.97;;;3.87;;
14754;SDS011;7469;50.906;6.952;2023-08-07T03:48:38;12.60;;;3.40;;
14754;SDS011;7469;50.906;6.952;2023-08-07T03:51:06;6.93;;;2.90;;
14754;SDS011;7469;50.906;6.952;2023-08-07T03:53:35;9.90;;;3.47;;
14754;SDS011;7469;50.906;6.952;2023-08-07T03:56:05;10.37;;;3.50;;
14754;SDS011;7469;50.906;6.952;2023-08-07T03:58:33;15.87;;;3.33;;
14754;SDS011;7469;50.906;6.952;2023-08-07T04:01:01;11.27;;;2.93;;
14754;SDS011;7469;50.906;6.952;2023-08-07T04:03:29;7.47;;;2.80;;
14754;SDS011;7469;50.906;6.952;2023-08-07T04:05:57;11.83;;;3.43;;
14754;SDS011;7469;50.906;6.952;2023-08-07T04:08:26;10.53;;;3.07;;
14754;SDS011;7469;50.906;6.952;2023-08-07T04:10:58;8.03;;;3.10;;
14754;SDS011;7469;50.906;6.952;2023-08-07T04:13:28;10.50;;;3.00;;
14754;SDS011;7469;50.906;6.952;2023-08-07T04:15:56;8.27;;;3.53;;
14754;SDS011;7469;50.906;6.952;2023-08-07T04:18:25;7.37;;;3.10;;
14754;SDS011;7469;50.906;6.952;2023-08-07T04:20:53;7.97;;;2.83;;
14754;SDS011;7469;50.906;6.952;2023-08-07T04:23:22;9.40;;;3.07;;
14754;SDS011;7469;50.906;6.952;2023-08-07T04:25:51;7.73;;;2.87;;
14754;SDS011;7469;50.906;6.952;2023-08-07T04:28:20;12.20;;;3.83;;
14754;SDS011;7469;50.906;6.952;2023-08-07T04:30:50;6.77;;;3.30;;
14754;SDS011;7469;50.906;6.952;2023-08-07T04:33:19;8.30;;;3.33;;
14754;SDS011;7469;50.906;6.952;2023-08-07T04:35:47;12.43;;;3.37;;
14754;SDS011;7469;50.906;6.952;2023-08-07T04:38:16;6.80;;;3.17;;
14754;SDS011;7469;50.906;6.952;2023-08-07T04:40:44;10.47;;;3.10;;
14754;SDS011;7469;50.906;6.952;2023-08-07T04:43:13;8.53;;;3.37;;
14754;SDS011;7469;50.906;6.952;2023-08-07T04:45:41;8.37;;;3.33;;
14754;SDS011;7469;50.906;6.952;2023-08-07T04:48:13;7.00;;;3.20;;
14754;SDS011;7469;50.906;6.952;2023-08-07T04:50:41;10.53;;;3.63;;
14754;SDS011;7469;50.906;6.952;2023-08-07T04:53:09;9.23;;;3.30;;
14754;SDS011;7469;50.906;6.952;2023-08-07T04:55:37;8.27;;;3.23;;
14754;SDS011;7469;50.906;6.952;2023-08-07T04:58:06;7.83;;;3.57;;
14754;SDS011;7469;50.906;6.952;2023-08-07T05:00:34;5.43;;;3.10;;
14754;SDS011;7469;50.906;6.952;2023-08-07T05:03:02;8.43;;;3.23;;
14754;SDS011;7469;50.906;6.952;2023-08-07T05:05:32;7.60;;;3.23;;
14754;SDS011;7469;50.906;6.952;2023-08-07T05:08:00;9.67;;;3.07;;
14754;SDS011;7469;50.906;6.952;2023-08-07T05:10:28;9.87;;;3.40;;
14754;SDS011;7469;50.906;6.952;2023-08-07T05:12:56;7.07;;;3.20;;
14754;SDS011;7469;50.906;6.952;2023-08-07T05:15:24;10.40;;;3.37;;
14754;SDS011;7469;50.906;6.952;2023-08-07T05:17:54;5.77;;;2.80;;
14754;SDS011;7469;50.906;6.952;2023-08-07T05:20:22;8.20;;;3.70;;
14754;SDS011;7469;50.906;6.952;2023-08-07T05:22:52;8.13;;;3.20;;
14754;SDS011;7469;50.906;6.952;2023-08-07T05:25:20;10.97;;;3.10;;
14754;SDS011;7469;50.906;6.952;2023-08-07T05:27:48;9.87;;;3.40;;
14754;SDS011;7469;50.906;6.952;2023-08-07T05:30:16;16.50;;;4.20;;
14754;SDS011;7469;50.906;6.952;2023-08-07T05:32:45;7.60;;;3.03;;
14754;SDS011;7469;50.906;6.952;2023-08-07T05:35:13;13.53;;;2.87;;
14754;SDS011;7469;50.906;6.952;2023-08-07T05:37:41;8.47;;;3.03;;
14754;SDS011;7469;50.906;6.952;2023-08-07T05:40:10;6.80;;;2.67;;
14754;SDS011;7469;50.906;6.952;2023-08-07T05:42:39;8.27;;;3.17;;
14754;SDS011;7469;50.906;6.952;2023-08-07T05:45:08;10.60;;;3.40;;
14754;SDS011;7469;50.906;6.952;2023-08-07T05:47:37;6.60;;;3.13;;
14754;SDS011;7469;50.906;6.952;2023-08-07T05:50:05;9.50;;;3.30;;
14754;SDS011;7469;50.906;6.952;2023-08-07T05:52:34;9.67;;;2.83;;
14754;SDS011;7469;50.906;6.952;2023-08-07T05:55:02;8.87;;;2.90;;
14754;SDS011;7469;50.906;6.952;2023-08-07T05:57:34;8.30;;;2.90;;
14754;SDS011;7469;50.906;6.952;2023-08-07T06:00:02;6.00;;;2.40;;
14754;SDS011;7469;50.906;6.952;2023-08-07T06:02:31;6.47;;;2.93;;
14754;SDS011;7469;50.906;6.952;2023-08-07T06:04:59;6.53;;;2.97;;
14754;SDS011;7469;50.906;6.952;2023-08-07T06:07:27;11.90;;;3.13;;
14754;SDS011;7469;50.906;6.952;2023-08-07T06:09:56;10.50;;;2.87;;
14754;SDS011;7469;50.906;6.952;2023-08-07T06:12:23;11.97;;;2.70;;
14754;SDS011;7469;50.906;6.952;2023-08-07T06:14:53;10.17;;;3.13;;
14754;SDS011;7469;50.906;6.952;2023-08-07T06:17:21;8.40;;;2.50;;
14754;SDS011;7469;50.906;6.952;2023-08-07T06:19:49;7.10;;;2.80;;
14754;SDS011;7469;50.906;6.952;2023-08-07T06:22:17;9.80;;;3.00;;
14754;SDS011;7469;50.906;6.952;2023-08-07T06:24:45;8.20;;;3.00;;
14754;SDS011;7469;50.906;6.952;2023-08-07T06:27:13;7.23;;;2.73;;
14754;SDS011;7469;50.906;6.952;2023-08-07T06:29:41;6.53;;;2.77;;
14754;SDS011;7469;50.906;6.952;2023-08-07T06:32:10;10.37;;;3.03;;
14754;SDS011;7469;50.906;6.952;2023-08-07T06:34:38;6.73;;;3.00;;
14754;SDS011;7469;50.906;6.952;2023-08-07T06:37:06;10.67;;;3.30;;
14754;SDS011;7469;50.906;6.952;2023-08-07T06:39:34;8.90;;;3.17;;
14754;SDS011;7469;50.906;6.952;2023-08-07T06:42:02;8.53;;;2.93;;
14754;SDS011;7469;50.906;6.952;2023-08-07T06:44:31;8.77;;;3.00;;
14754;SDS011;7469;50.906;6.952;2023-08-07T06:46:59;7.73;;;3.17;;
14754;SDS011;7469;50.906;6.952;2023-08-07T06:49:28;11.53;;;3.97;;
14754;SDS011;7469;50.906;6.952;2023-08-07T06:51:57;10.43;;;3.47;;
14754;SDS011;7469;50.906;6.952;2023-08-07T06:54:25;9.40;;;3.33;;
14754;SDS011;7469;50.906;6.952;2023-08-07T06:56:53;7.97;;;3.47;;
14754;SDS011;7469;50.906;6.952;2023-08-07T06:59:21;11.07;;;3.43;;
14754;SDS011;7469;50.906;6.952;2023-08-07T07:01:50;9.97;;;3.40;;
14754;SDS011;7469;50.906;6.952;2023-08-07T07:04:18;11.77;;;3.40;;
14754;SDS011;7469;50.906;6.952;2023-08-07T07:06:47;8.53;;;3.63;;
14754;SDS011;7469;50.906;6.952;2023-08-07T07:09:15;12.13;;;3.70;;
14754;SDS011;7469;50.906;6.952;2023-08-07T07:11:43;6.43;;;2.90;;
14754;SDS011;7469;50.906;6.952;2023-08-07T07:14:11;10.67;;;3.33;;
14754;SDS011;7469;50.906;6.952;2023-08-07T07:16:39;9.97;;;3.80;;
14754;SDS011;7469;50.906;6.952;2023-08-07T07:19:08;9.83;;;3.07;;
14754;SDS011;7469;50.906;6.952;2023-08-07T07:21:36;7.27;;;3.00;;
14754;SDS011;7469;50.906;6.952;2023-08-07T07:24:05;8.20;;;3.23;;
14754;SDS011;7469;50.906;6.952;2023-08-07T07:26:33;10.30;;;3.47;;
14754;SDS011;7469;50.906;6.952;2023-08-07T07:29:01;5.87;;;3.27;;
14754;SDS011;7469;50.906;6.952;2023-08-07T07:31:29;11.13;;;3.47;;
14754;SDS011;7469;50.906;6.952;2023-08-07T07:33:58;10.17;;;2.83;;
14754;SDS011;7469;50.906;6.952;2023-08-07T07:36:26;7.90;;;3.27;;
14754;SDS011;7469;50.906;6.952;2023-08-07T07:38:54;9.87;;;3.03;;
14754;SDS011;7469;50.906;6.952;2023-08-07T07:41:23;10.70;;;3.33;;
14754;SDS011;7469;50.906;6.952;2023-08-07T07:43:51;6.07;;;3.40;;
14754;SDS011;7469;50.906;6.952;2023-08-07T07:46:22;9.13;;;3.10;;
14754;SDS011;7469;50.906;6.952;2023-08-07T07:48:50;8.27;;;2.93;;
14754;SDS011;7469;50.906;6.952;2023-08-07T07:51:18;7.77;;;3.07;;
14754;SDS011;7469;50.906;6.952;2023-08-07T07:53:46;9.97;;;3.30;;
14754;SDS011;7469;50.906;6.952;2023-08-07T07:56:36;11.87;;;3.57;;
14754;SDS011;7469;50.906;6.952;2023-08-07T07:59:04;8.93;;;2.83;;
14754;SDS011;7469;50.906;6.952;2023-08-07T08:01:34;8.87;;;3.00;;
14754;SDS011;7469;50.906;6.952;2023-08-07T08:04:03;5.13;;;3.27;;
14754;SDS011;7469;50.906;6.952;2023-08-07T08:06:31;7.23;;;3.40;;
14754;SDS011;7469;50.906;6.952;2023-08-07T08:08:59;10.97;;;3.53;;
14754;SDS011;7469;50.906;6.952;2023-08-07T08:11:30;12.80;;;3.60;;
14754;SDS011;7469;50.906;6.952;2023-08-07T08:14:00;9.63;;;3.30;;
14754;SDS011;7469;50.906;6.952;2023-08-07T08:16:28;8.60;;;3.40;;
14754;SDS011;7469;50.906;6.952;2023-08-07T08:18:56;11.07;;;3.10;;
14754;SDS011;7469;50.906;6.952;2023-08-07T08:21:24;10.70;;;3.33;;
14754;SDS011;7469;50.906;6.952;2023-08-07T08:23:52;8.40;;;3.20;;
14754;SDS011;7469;50.906;6.952;2023-08-07T08:26:20;10.27;;;3.20;;
14754;SDS011;7469;50.906;6.952;2023-08-07T08:28:48;11.27;;;3.50;;
14754;SDS011;7469;50.906;6.952;2023-08-07T08:31:17;9.57;;;3.10;;
14754;SDS011;7469;50.906;6.952;2023-08-07T08:33:47;10.87;;;3.23;;
14754;SDS011;7469;50.906;6.952;2023-08-07T08:36:15;8.40;;;3.27;;
14754;SDS011;7469;50.906;6.952;2023-08-07T08:38:44;9.70;;;2.90;;
14754;SDS011;7469;50.906;6.952;2023-08-07T08:41:14;11.80;;;3.60;;
14754;SDS011;7469;50.906;6.952;2023-08-07T08:43:45;10.53;;;3.27;;
14754;SDS011;7469;50.906;6.952;2023-08-07T08:46:14;8.30;;;2.90;;
14754;SDS011;7469;50.906;6.952;2023-08-07T08:48:44;7.43;;;3.03;;
14754;SDS011;7469;50.906;6.952;2023-08-07T08:51:18;8.70;;;2.87;;
14754;SDS011;7469;50.906;6.952;2023-08-07T08:53:48;10.37;;;3.00;;
14754;SDS011;7469;50.906;6.952;2023-08-07T08:56:18;8.20;;;3.13;;
14754;SDS011;7469;50.906;6.952;2023-08-07T08:58:48;6.37;;;3.10;;
14754;SDS011;7469;50.906;6.952;2023-08-07T09:01:18;8.17;;;3.00;;
14754;SDS011;7469;50.906;6.952;2023-08-07T09:03:50;8.13;;;2.90;;
14754;SDS011;7469;50.906;6.952;2023-08-07T09:06:19;9.73;;;3.00;;
14754;SDS011;7469;50.906;6.952;2023-08-07T09:08:47;7.00;;;2.77;;
14754;SDS011;7469;50.906;6.952;2023-08-07T09:11:16;7.77;;;3.27;;
14754;SDS011;7469;50.906;6.952;2023-08-07T09:13:45;10.03;;;3.03;;
14754;SDS011;7469;50.906;6.952;2023-08-07T09:16:16;10.73;;;3.00;;
14754;SDS011;7469;50.906;6.952;2023-08-07T09:18:45;12.53;;;3.30;;
14754;SDS011;7469;50.906;6.952;2023-08-07T09:21:16;5.37;;;2.47;;
14754;SDS011;7469;50.906;6.952;2023-08-07T09:23:45;8.77;;;3.07;;
14754;SDS011;7469;50.906;6.952;2023-08-07T09:26:13;6.47;;;2.67;;
14754;SDS011;7469;50.906;6.952;2023-08-07T09:28:48;7.80;;;2.93;;
14754;SDS011;7469;50.906;6.952;2023-08-07T09:31:19;5.97;;;2.60;;
14754;SDS011;7469;50.906;6.952;2023-08-07T09:33:47;7.70;;;2.80;;
14754;SDS011;7469;50.906;6.952;2023-08-07T09:36:17;9.83;;;3.10;;
14754;SDS011;7469;50.906;6.952;2023-08-07T09:38:49;9.00;;;2.97;;
14754;SDS011;7469;50.906;6.952;2023-08-07T09:41:17;6.07;;;2.57;;
14754;SDS011;7469;50.906;6.952;2023-08-07T09:43:46;6.33;;;2.43;;
14754;SDS011;7469;50.906;6.952;2023-08-07T09:46:14;7.67;;;2.23;;
14754;SDS011;7469;50.906;6.952;2023-08-07T09:48:44;5.33;;;2.47;;
14754;SDS011;7469;50.906;6.952;2023-08-07T09:51:12;9.07;;;2.60;;
14754;SDS011;7469;50.906;6.952;2023-08-07T09:53:42;8.57;;;2.60;;
14754;SDS011;7469;50.906;6.952;2023-08-07T09:56:10;6.37;;;2.50;;
14754;SDS011;7469;50.906;6.952;2023-08-07T09:58:43;7.10;;;2.67;;
14754;SDS011;7469;50.906;6.952;2023-08-07T10:01:15;8.77;;;2.77;;
14754;SDS011;7469;50.906;6.952;2023-08-07T10:03:44;6.17;;;2.60;;
14754;SDS011;7469;50.906;6.952;2023-08-07T10:06:13;6.83;;;2.07;;
14754;SDS011;7469;50.906;6.952;2023-08-07T10:08:43;7.73;;;2.30;;
14754;SDS011;7469;50.906;6.952;2023-08-07T10:11:12;5.20;;;2.60;;
14754;SDS011;7469;50.906;6.952;2023-08-07T10:13:44;8.37;;;2.33;;
14754;SDS011;7469;50.906;6.952;2023-08-07T10:16:12;6.20;;;2.47;;
14754;SDS011;7469;50.906;6.952;2023-08-07T10:18:41;5.07;;;2.40;;
14754;SDS011;7469;50.906;6.952;2023-08-07T10:21:10;9.47;;;2.50;;
14754;SDS011;7469;50.906;6.952;2023-08-07T10:23:38;7.30;;;2.33;;
14754;SDS011;7469;50.906;6.952;2023-08-07T10:26:08;5.97;;;2.40;;
14754;SDS011;7469;50.906;6.952;2023-08-07T10:28:38;5.27;;;2.60;;
14754;SDS011;7469;50.906;6.952;2023-08-07T10:31:07;8.50;;;2.53;;
14754;SDS011;7469;50.906;6.952;2023-08-07T10:33:36;6.83;;;2.23;;
14754;SDS011;7469;50.906;6.952;2023-08-07T10:36:07;11.30;;;2.53;;
14754;SDS011;7469;50.906;6.952;2023-08-07T10:38:36;3.70;;;2.17;;
14754;SDS011;7469;50.906;6.952;2023-08-07T10:41:09;5.70;;;2.03;;
14754;SDS011;7469;50.906;6.952;2023-08-07T10:43:39;6.20;;;1.70;;
14754;SDS011;7469;50.906;6.952;2023-08-07T10:46:11;7.67;;;2.33;;
14754;SDS011;7469;50.906;6.952;2023-08-07T10:48:41;5.57;;;2.00;;
14754;SDS011;7469;50.906;6.952;2023-08-07T10:51:11;3.83;;;2.07;;
14754;SDS011;7469;50.906;6.952;2023-08-07T10:53:40;4.10;;;1.70;;
14754;SDS011;7469;50.906;6.952;2023-08-07T10:56:15;5.17;;;1.70;;
14754;SDS011;7469;50.906;6.952;2023-08-07T10:58:47;5.03;;;1.70;;
14754;SDS011;7469;50.906;6.952;2023-08-07T11:01:21;3.97;;;1.83;;
14754;SDS011;7469;50.906;6.952;2023-08-07T11:03:50;6.10;;;1.80;;
14754;SDS011;7469;50.906;6.952;2023-08-07T11:06:23;5.83;;;2.00;;
14754;SDS011;7469;50.906;6.952;2023-08-07T11:08:52;4.60;;;1.70;;
14754;SDS011;7469;50.906;6.952;2023-08-07T11:11:22;4.17;;;1.83;;
14754;SDS011;7469;50.906;6.952;2023-08-07T11:13:50;5.20;;;2.00;;
14754;SDS011;7469;50.906;6.952;2023-08-07T11:16:18;5.57;;;2.20;;
14754;SDS011;7469;50.906;6.952;2023-08-07T11:18:48;4.63;;;1.90;;
14754;SDS011;7469;50.906;6.952;2023-08-07T11:21:16;6.40;;;1.93;;
14754;SDS011;7469;50.906;6.952;2023-08-07T11:23:46;6.90;;;1.97;;
14754;SDS011;7469;50.906;6.952;2023-08-07T11:26:13;7.87;;;2.03;;
14754;SDS011;7469;50.906;6.952;2023-08-07T11:28:43;8.80;;;2.20;;
14754;SDS011;7469;50.906;6.952;2023-08-07T11:31:11;6.70;;;1.83;;
14754;SDS011;7469;50.906;6.952;2023-08-07T11:33:40;6.97;;;1.80;;
14754;SDS011;7469;50.906;6.952;2023-08-07T11:36:10;2.97;;;1.70;;
14754;SDS011;7469;50.906;6.952;2023-08-07T11:38:39;6.23;;;1.87;;
14754;SDS011;7469;50.906;6.952;2023-08-07T11:41:10;4.37;;;1.80;;
14754;SDS011;7469;50.906;6.952;2023-08-07T11:43:39;6.80;;;2.20;;
14754;SDS011;7469;50.906;6.952;2023-08-07T11:46:09;3.90;;;1.80;;
14754;SDS011;7469;50.906;6.952;2023-08-07T11:48:39;5.57;;;1.97;;
14754;SDS011;7469;50.906;6.952;2023-08-07T11:51:08;5.80;;;2.30;;
14754;SDS011;7469;50.906;6.952;2023-08-07T11:53:36;5.63;;;2.00;;
14754;SDS011;7469;50.906;6.952;2023-08-07T11:56:06;4.93;;;2.00;;
14754;SDS011;7469;50.906;6.952;2023-08-07T11:58:36;5.67;;;2.53;;
14754;SDS011;7469;50.906;6.952;2023-08-07T12:01:05;4.37;;;2.03;;
14754;SDS011;7469;50.906;6.952;2023-08-07T12:03:36;6.50;;;2.20;;
14754;SDS011;7469;50.906;6.952;2023-08-07T12:06:06;5.00;;;2.10;;
14754;SDS011;7469;50.906;6.952;2023-08-07T12:08:36;6.27;;;2.17;;
14754;SDS011;7469;50.906;6.952;2023-08-07T12:11:05;7.27;;;2.30;;
14754;SDS011;7469;50.906;6.952;2023-08-07T12:13:36;5.87;;;2.03;;
14754;SDS011;7469;50.906;6.952;2023-08-07T12:16:05;6.13;;;2.20;;
14754;SDS011;7469;50.906;6.952;2023-08-07T12:18:36;5.00;;;2.03;;
14754;SDS011;7469;50.906;6.952;2023-08-07T12:21:06;5.37;;;2.07;;
14754;SDS011;7469;50.906;6.952;2023-08-07T12:23:35;4.30;;;2.30;;
14754;SDS011;7469;50.906;6.952;2023-08-07T12:26:04;5.23;;;1.90;;
14754;SDS011;7469;50.906;6.952;2023-08-07T12:28:33;6.10;;;2.20;;
14754;SDS011;7469;50.906;6.952;2023-08-07T12:31:02;3.50;;;1.80;;
14754;SDS011;7469;50.906;6.952;2023-08-07T12:33:30;8.33;;;2.00;;
14754;SDS011;7469;50.906;6.952;2023-08-07T12:36:00;2.83;;;2.03;;
14754;SDS011;7469;50.906;6.952;2023-08-07T12:38:29;4.70;;;2.00;;
14754;SDS011;7469;50.906;6.952;2023-08-07T12:40:57;4.03;;;1.63;;
14754;SDS011;7469;50.906;6.952;2023-08-07T12:43:25;5.20;;;1.70;;
14754;SDS011;7469;50.906;6.952;2023-08-07T12:45:53;2.90;;;1.60;;
14754;SDS011;7469;50.906;6.952;2023-08-07T12:48:41;4.80;;;1.80;;
14754;SDS011;7469;50.906;6.952;2023-08-07T12:51:10;4.37;;;1.80;;
14754;SDS011;7469;50.906;6.952;2023-08-07T12:53:39;5.33;;;2.23;;
14754;SDS011;7469;50.906;6.952;2023-08-07T12:56:06;3.60;;;1.67;;
14754;SDS011;7469;50.906;6.952;2023-08-07T12:58:35;5.47;;;2.07;;
14754;SDS011;7469;50.906;6.952;2023-08-07T13:01:04;8.27;;;2.23;;
14754;SDS011;7469;50.906;6.952;2023-08-07T13:03:32;4.40;;;1.90;;
14754;SDS011;7469;50.906;6.952;2023-08-07T13:06:00;4.33;;;2.00;;
14754;SDS011;7469;50.906;6.952;2023-08-07T13:08:33;5.00;;;2.00;;
14754;SDS011;7469;50.906;6.952;2023-08-07T13:11:01;6.90;;;2.40;;
14754;SDS011;7469;50.906;6.952;2023-08-07T13:13:29;3.33;;;1.73;;
14754;SDS011;7469;50.906;6.952;2023-08-07T13:15:57;4.17;;;2.40;;
14754;SDS011;7469;50.906;6.952;2023-08-07T13:18:25;3.00;;;1.90;;
14754;SDS011;7469;50.906;6.952;2023-08-07T13:20:53;6.23;;;2.30;;
14754;SDS011;7469;50.906;6.952;2023-08-07T13:23:22;5.77;;;2.27;;
14754;SDS011;7469;50.906;6.952;2023-08-07T13:25:53;5.73;;;2.57;;
14754;SDS011;7469;50.906;6.952;2023-08-07T13:28:22;4.57;;;2.50;;
14754;SDS011;7469;50.906;6.952;2023-08-07T13:30:50;6.90;;;2.03;;
14754;SDS011;7469;50.906;6.952;2023-08-07T13:33:20;5.87;;;1.80;;
14754;SDS011;7469;50.906;6.952;2023-08-07T13:35:48;5.70;;;1.90;;
14754;SDS011;7469;50.906;6.952;2023-08-07T13:38:16;4.93;;;1.80;;
14754;SDS011;7469;50.906;6.952;2023-08-07T13:40:45;6.17;;;2.20;;
14754;SDS011;7469;50.906;6.952;2023-08-07T13:43:19;7.60;;;2.43;;
14754;SDS011;7469;50.906;6.952;2023-08-07T13:45:47;7.90;;;2.37;;
14754;SDS011;7469;50.906;6.952;2023-08-07T13:48:17;4.83;;;2.23;;
14754;SDS011;7469;50.906;6.952;2023-08-07T13:50:45;5.37;;;2.13;;
14754;SDS011;7469;50.906;6.952;2023-08-07T13:53:13;6.87;;;3.07;;
14754;SDS011;7469;50.906;6.952;2023-08-07T13:55:42;4.60;;;2.63;;
14754;SDS011;7469;50.906;6.952;2023-08-07T13:58:10;6.93;;;2.47;;
14754;SDS011;7469;50.906;6.952;2023-08-07T14:00:42;6.20;;;2.20;;
14754;SDS011;7469;50.906;6.952;2023-08-07T14:03:11;5.43;;;2.10;;
14754;SDS011;7469;50.906;6.952;2023-08-07T14:05:39;6.37;;;2.50;;
14754;SDS011;7469;50.906;6.952;2023-08-07T14:08:08;7.30;;;2.50;;
14754;SDS011;7469;50.906;6.952;2023-08-07T14:10:37;5.73;;;2.37;;
14754;SDS011;7469;50.906;6.952;2023-08-07T14:13:08;6.13;;;2.43;;
14754;SDS011;7469;50.906;6.952;2023-08-07T14:15:38;5.43;;;2.27;;
14754;SDS011;7469;50.906;6.952;2023-08-07T14:18:07;2.20;;;1.93;;
14754;SDS011;7469;50.906;6.952;2023-08-07T14:20:36;4.37;;;1.97;;
14754;SDS011;7469;50.906;6.952;2023-08-07T14:23:24;5.23;;;2.10;;
14754;SDS011;7469;50.906;6.952;2023-08-07T14:25:54;8.70;;;2.20;;
14754;SDS011;7469;50.906;6.952;2023-08-07T14:28:22;6.07;;;2.40;;
14754;SDS011;7469;50.906;6.952;2023-08-07T14:30:52;3.67;;;2.23;;
14754;SDS011;7469;50.906;6.952;2023-08-07T14:33:21;7.87;;;2.07;;
14754;SDS011;7469;50.906;6.952;2023-08-07T14:35:49;3.77;;;1.90;;
14754;SDS011;7469;50.906;6.952;2023-08-07T14:38:17;2.43;;;1.80;;
14754;SDS011;7469;50.906;6.952;2023-08-07T14:40:45;3.57;;;2.00;;
14754;SDS011;7469;50.906;6.952;2023-08-07T14:43:13;2.80;;;1.80;;
14754;SDS011;7469;50.906;6.952;2023-08-07T14:45:41;3.73;;;2.10;;
14754;SDS011;7469;50.906;6.952;2023-08-07T14:48:08;4.57;;;2.17;;
14754;SDS011;7469;50.906;6.952;2023-08-07T14:50:38;5.47;;;2.17;;
14754;SDS011;7469;50.906;6.952;2023-08-07T14:53:06;7.87;;;2.47;;
14754;SDS011;7469;50.906;6.952;2023-08-07T14:55:34;4.17;;;2.10;;
14754;SDS011;7469;50.906;6.952;2023-08-07T14:58:02;7.13;;;2.60;;
14754;SDS011;7469;50.906;6.952;2023-08-07T15:00:30;5.23;;;1.90;;
14754;SDS011;7469;50.906;6.952;2023-08-07T15:02:58;3.77;;;2.20;;
14754;SDS011;7469;50.906;6.952;2023-08-07T15:05:26;7.23;;;2.57;;
14754;SDS011;7469;50.906;6.952;2023-08-07T15:07:55;5.00;;;2.27;;